createdAt,value
2023-01-21T00:00:26.145Z,51.48
2023-01-21T00:01:26.123Z,53.83
2023-01-21T00:02:26.202Z,64.83
2023-01-21T00:03:26.168Z,65.41
2023-01-21T00:04:26.105Z,57.54
2023-01-21T00:05:26.103Z,61.73
2023-01-21T00:06:26.095Z,55.97
2023-01-21T00:07:26.102Z,60.40
2023-01-21T00:08:26.104Z,57.61
2023-01-21T00:09:26.067Z,57.00
2023-01-21T00:10:26.069Z,62.55
2023-01-21T00:11:26.057Z,67.42
2023-01-21T00:12:26.049Z,49.50
2023-01-21T00:13:26.042Z,47.07
2023-01-21T00:14:26.066Z,56.64
2023-01-21T00:15:26.185Z,61.51
2023-01-21T00:16:26.023Z,55.51
2023-01-21T00:17:26.010Z,59.08
2023-01-21T00:18:26.004Z,53.39
2023-01-21T00:19:26.024Z,51.51
2023-01-21T00:20:25.992Z,57.05
2023-01-21T00:21:25.996Z,61.35
2023-01-21T00:22:25.979Z,53.66
2023-01-21T00:23:25.966Z,61.51
2023-01-21T00:24:25.986Z,57.43
2023-01-21T00:25:25.945Z,51.89
2023-01-21T00:26:25.964Z,64.48
2023-01-21T00:27:25.943Z,58.10
2023-01-21T00:28:25.928Z,53.38
2023-01-21T00:29:25.947Z,64.14
2023-01-21T00:30:25.919Z,56.71
2023-01-21T00:31:25.991Z,52.49
2023-01-21T00:32:25.902Z,49.63
2023-01-21T00:33:25.885Z,55.66
2023-01-21T00:34:25.920Z,67.04
2023-01-21T00:35:25.874Z,51.44
2023-01-21T00:36:25.864Z,60.66
2023-01-21T00:37:25.853Z,61.70
2023-01-21T00:38:25.845Z,60.04
2023-01-21T00:39:25.878Z,62.62
2023-01-21T00:40:25.838Z,62.62
2023-01-21T00:41:25.833Z,51.43
2023-01-21T00:42:25.825Z,54.00
2023-01-21T00:43:25.816Z,64.14
2023-01-21T00:44:25.836Z,56.91
2023-01-21T00:45:25.798Z,52.87
2023-01-21T00:46:25.858Z,56.82
2023-01-21T00:47:25.787Z,66.90
2023-01-21T00:48:25.795Z,45.27
2023-01-21T00:49:25.793Z,58.73
2023-01-21T00:50:25.761Z,52.14
2023-01-21T00:51:25.760Z,68.39
2023-01-21T00:52:25.751Z,62.10
2023-01-21T00:53:25.742Z,60.43
2023-01-21T00:54:25.761Z,50.68
2023-01-21T00:55:25.726Z,61.31
2023-01-21T00:56:25.721Z,49.07
2023-01-21T00:57:25.708Z,52.59
2023-01-21T00:58:25.725Z,53.35
2023-01-21T00:59:25.735Z,65.45
2023-01-21T01:00:25.694Z,61.00
2023-01-21T01:01:25.744Z,54.70
2023-01-21T01:02:25.712Z,55.76
2023-01-21T01:03:25.686Z,47.34
2023-01-21T01:04:25.691Z,51.64
2023-01-21T01:05:25.655Z,54.99
2023-01-21T01:06:25.647Z,54.65
2023-01-21T01:07:25.633Z,64.58
2023-01-21T01:08:26.635Z,55.87
2023-01-21T01:09:25.659Z,53.33
2023-01-21T01:10:25.627Z,64.45
2023-01-21T01:11:25.612Z,55.43
2023-01-21T01:12:25.612Z,60.65
2023-01-21T01:13:25.598Z,55.46
2023-01-21T01:14:25.627Z,59.21
2023-01-21T01:15:25.594Z,58.59
2023-01-21T01:16:25.577Z,50.44
2023-01-21T01:17:25.569Z,54.12
2023-01-21T01:18:25.564Z,58.69
2023-01-21T01:19:25.599Z,54.19
2023-01-21T01:20:25.545Z,57.01
2023-01-21T01:21:25.539Z,60.79
2023-01-21T01:22:25.532Z,62.97
2023-01-21T01:23:25.529Z,62.53
2023-01-21T01:24:25.549Z,59.02
2023-01-21T01:25:25.511Z,66.58
2023-01-21T01:26:25.496Z,62.21
2023-01-21T01:27:25.492Z,58.51
2023-01-21T01:28:25.499Z,60.24
2023-01-21T01:29:25.504Z,66.94
2023-01-21T01:30:25.534Z,56.76
2023-01-21T01:31:25.483Z,53.52
2023-01-21T01:32:25.463Z,59.48
2023-01-21T01:33:25.457Z,66.27
2023-01-21T01:34:25.466Z,64.61
2023-01-21T01:35:25.443Z,57.37
2023-01-21T01:36:25.445Z,61.28
2023-01-21T01:37:25.422Z,50.44
2023-01-21T01:38:25.412Z,61.01
2023-01-21T01:39:25.441Z,51.95
2023-01-21T01:40:25.414Z,56.10
2023-01-21T01:41:25.407Z,54.48
2023-01-21T01:42:25.393Z,52.75
2023-01-21T01:43:25.388Z,52.37
2023-01-21T01:44:25.405Z,62.27
2023-01-21T01:45:25.369Z,53.78
2023-01-21T01:46:25.370Z,53.17
2023-01-21T01:47:25.357Z,58.28
2023-01-21T01:48:25.347Z,56.05
2023-01-21T01:49:25.370Z,53.66
2023-01-21T01:50:25.334Z,55.79
2023-01-21T01:51:25.332Z,52.27
2023-01-21T01:52:25.317Z,63.07
2023-01-21T01:53:25.305Z,60.57
2023-01-21T01:54:27.180Z,53.78
2023-01-21T01:55:25.303Z,55.54
2023-01-21T01:56:25.291Z,52.98
2023-01-21T01:57:25.293Z,49.50
2023-01-21T01:58:25.280Z,60.91
2023-01-21T01:59:25.292Z,46.54
2023-01-21T02:00:25.260Z,45.11
2023-01-21T02:01:25.311Z,47.42
2023-01-21T02:02:25.246Z,50.31
2023-01-21T02:03:25.252Z,56.53
2023-01-21T02:04:25.260Z,57.02
2023-01-21T02:05:25.228Z,50.15
2023-01-21T02:06:25.219Z,49.18
2023-01-21T02:07:25.212Z,57.26
2023-01-21T02:08:25.206Z,60.89
2023-01-21T02:09:25.223Z,52.31
2023-01-21T02:10:25.196Z,51.14
2023-01-21T02:11:25.185Z,58.35
2023-01-21T02:12:25.171Z,58.70
2023-01-21T02:13:25.168Z,50.08
2023-01-21T02:14:25.190Z,53.43
2023-01-21T02:15:25.154Z,50.28
2023-01-21T02:16:25.167Z,52.48
2023-01-21T02:17:25.143Z,60.47
2023-01-21T02:18:25.132Z,46.57
2023-01-21T02:19:25.158Z,46.26
2023-01-21T02:20:25.126Z,50.25
2023-01-21T02:21:25.107Z,45.28
2023-01-21T02:22:25.105Z,44.36
2023-01-21T02:23:25.097Z,61.37
2023-01-21T02:24:25.092Z,57.98
2023-01-21T02:25:25.105Z,49.03
2023-01-21T02:26:25.077Z,54.85
2023-01-21T02:27:30.812Z,60.35
2023-01-21T02:28:27.090Z,50.84
2023-01-21T02:29:25.051Z,51.24
2023-01-21T02:30:25.069Z,53.29
2023-01-21T02:31:25.052Z,55.45
2023-01-21T02:32:25.028Z,65.61
2023-01-21T02:33:25.020Z,58.83
2023-01-21T02:34:25.015Z,52.40
2023-01-21T02:35:25.045Z,52.95
2023-01-21T02:36:24.995Z,47.76
2023-01-21T02:37:25.003Z,48.66
2023-01-21T02:38:24.986Z,54.66
2023-01-21T02:39:24.977Z,62.33
2023-01-21T02:40:24.998Z,58.12
2023-01-21T02:41:24.969Z,59.71
2023-01-21T02:42:24.957Z,63.90
2023-01-21T02:43:24.951Z,50.72
2023-01-21T02:44:24.943Z,52.18
2023-01-21T02:45:24.966Z,43.61
2023-01-21T02:46:24.946Z,44.58
2023-01-21T02:47:24.923Z,54.12
2023-01-21T02:48:24.912Z,56.10
2023-01-21T02:49:24.913Z,49.25
2023-01-21T02:50:24.933Z,57.43
2023-01-21T02:51:24.893Z,61.56
2023-01-21T02:52:24.888Z,52.65
2023-01-21T02:53:24.880Z,55.58
2023-01-21T02:54:24.871Z,54.02
2023-01-21T02:55:24.901Z,43.16
2023-01-21T02:56:24.861Z,49.89
2023-01-21T02:57:24.860Z,47.36
2023-01-21T02:58:24.846Z,49.60
2023-01-21T02:59:24.841Z,46.08
2023-01-21T03:00:24.858Z,42.78
2023-01-21T03:01:24.827Z,57.92
2023-01-21T03:02:24.820Z,47.33
2023-01-21T03:03:24.830Z,52.39
2023-01-21T03:04:24.809Z,46.42
2023-01-21T03:05:24.829Z,47.78
2023-01-21T03:06:24.793Z,43.20
2023-01-21T03:07:24.782Z,48.97
2023-01-21T03:08:24.774Z,52.13
2023-01-21T03:09:24.784Z,48.87
2023-01-21T03:10:24.799Z,52.41
2023-01-21T03:11:24.748Z,51.23
2023-01-21T03:12:25.747Z,48.58
2023-01-21T03:13:24.739Z,46.01
2023-01-21T03:14:24.733Z,45.22
2023-01-21T03:15:24.727Z,45.12
2023-01-21T03:16:24.800Z,50.32
2023-01-21T03:17:24.741Z,54.55
2023-01-21T03:18:24.718Z,53.94
2023-01-21T03:19:24.705Z,61.01
2023-01-21T03:20:24.719Z,42.12
2023-01-21T03:21:24.713Z,41.35
2023-01-21T03:22:24.673Z,44.20
2023-01-21T03:23:24.670Z,46.68
2023-01-21T03:24:24.663Z,50.38
2023-01-21T03:25:24.659Z,50.05
2023-01-21T03:26:24.893Z,47.37
2023-01-21T03:27:24.636Z,48.05
2023-01-21T03:28:24.634Z,48.49
2023-01-21T03:29:24.625Z,56.22
2023-01-21T03:30:24.611Z,50.41
2023-01-21T03:31:25.696Z,54.59
2023-01-21T03:32:24.603Z,48.69
2023-01-21T03:33:24.632Z,49.96
2023-01-21T03:34:24.605Z,46.92
2023-01-21T03:35:24.581Z,46.06
2023-01-21T03:36:24.603Z,47.29
2023-01-21T03:37:24.589Z,49.60
2023-01-21T03:38:24.562Z,50.76
2023-01-21T03:39:24.554Z,52.67
2023-01-21T03:40:24.547Z,53.39
2023-01-21T03:41:24.549Z,56.08
2023-01-21T03:42:24.559Z,54.53
2023-01-21T03:43:24.526Z,59.11
2023-01-21T03:44:24.525Z,55.08
2023-01-21T03:45:24.599Z,51.26
2023-01-21T03:46:24.504Z,51.55
2023-01-21T03:47:24.529Z,51.48
2023-01-21T03:48:24.496Z,52.02
2023-01-21T03:49:24.482Z,49.29
2023-01-21T03:50:24.473Z,49.59
2023-01-21T03:51:24.468Z,53.83
2023-01-21T03:52:24.488Z,55.80
2023-01-21T03:53:24.455Z,57.88
2023-01-21T03:54:24.450Z,50.01
2023-01-21T03:55:24.444Z,54.02
2023-01-21T03:56:24.436Z,52.46
2023-01-21T03:57:24.465Z,57.10
2023-01-21T03:58:24.423Z,54.39
2023-01-21T03:59:24.421Z,55.48
2023-01-21T04:00:24.404Z,54.59
2023-01-21T04:01:24.402Z,63.84
2023-01-21T04:02:24.478Z,54.00
2023-01-21T04:03:24.386Z,59.24
2023-01-21T04:04:24.385Z,57.52
2023-01-21T04:05:24.375Z,67.74
2023-01-21T04:06:24.362Z,53.54
2023-01-21T04:07:24.385Z,62.49
2023-01-21T04:08:24.352Z,66.35
2023-01-21T04:09:24.339Z,55.81
2023-01-21T04:10:24.361Z,48.46
2023-01-21T04:11:24.336Z,58.05
2023-01-21T04:12:24.341Z,57.47
2023-01-21T04:13:24.318Z,53.65
2023-01-21T04:14:24.308Z,59.23
2023-01-21T04:15:24.302Z,62.67
2023-01-21T04:16:24.377Z,57.45
2023-01-21T04:17:24.325Z,57.95
2023-01-21T04:18:24.280Z,52.13
2023-01-21T04:19:24.267Z,61.50
2023-01-21T04:20:24.267Z,64.88
2023-01-21T04:21:24.257Z,60.26
2023-01-21T04:22:24.285Z,58.36
2023-01-21T04:23:24.247Z,54.51
2023-01-21T04:24:24.237Z,51.22
2023-01-21T04:25:24.232Z,60.10
2023-01-21T04:26:24.221Z,52.07
2023-01-21T04:27:24.248Z,51.17
2023-01-21T04:28:24.208Z,54.30
2023-01-21T04:29:24.203Z,53.33
2023-01-21T04:30:24.193Z,49.26
2023-01-21T04:31:24.210Z,55.92
2023-01-21T04:32:24.184Z,58.95
2023-01-21T04:33:24.200Z,55.61
2023-01-21T04:34:24.172Z,58.82
2023-01-21T04:35:24.168Z,53.56
2023-01-21T04:36:24.155Z,59.67
2023-01-21T04:37:24.151Z,51.77
2023-01-21T04:38:24.165Z,55.38
2023-01-21T04:39:24.137Z,48.45
2023-01-21T04:40:24.122Z,51.30
2023-01-21T04:41:25.538Z,56.91
2023-01-21T04:42:25.121Z,55.60
2023-01-21T04:43:24.143Z,55.04
2023-01-21T04:44:24.090Z,58.42
2023-01-21T04:45:24.087Z,57.45
2023-01-21T04:46:24.080Z,57.04
2023-01-21T04:47:24.079Z,59.12
2023-01-21T04:48:24.092Z,53.86
2023-01-21T04:49:24.057Z,53.26
2023-01-21T04:50:24.051Z,57.45
2023-01-21T04:51:24.054Z,59.06
2023-01-21T04:52:24.041Z,62.72
2023-01-21T04:53:24.067Z,54.09
2023-01-21T04:54:24.026Z,53.25
2023-01-21T04:55:26.234Z,57.84
2023-01-21T04:56:25.010Z,61.89
2023-01-21T04:57:24.004Z,62.65
2023-01-21T04:58:24.017Z,53.16
2023-01-21T04:59:23.986Z,49.23
2023-01-21T05:00:23.979Z,56.29
2023-01-21T05:01:24.117Z,59.48
2023-01-21T05:02:23.988Z,53.77
2023-01-21T05:03:23.986Z,53.09
2023-01-21T05:04:23.973Z,54.35
2023-01-21T05:05:23.943Z,63.94
2023-01-21T05:06:23.992Z,61.31
2023-01-21T05:07:23.924Z,57.18
2023-01-21T05:08:23.968Z,53.42
2023-01-21T05:09:23.948Z,57.64
2023-01-21T05:10:23.907Z,61.23
2023-01-21T05:11:23.955Z,60.65
2023-01-21T05:12:23.891Z,58.73
2023-01-21T05:13:23.920Z,57.24
2023-01-21T05:14:23.878Z,55.58
2023-01-21T05:15:23.867Z,55.37
2023-01-21T05:16:23.909Z,55.56
2023-01-21T05:17:23.860Z,54.19
2023-01-21T05:18:23.880Z,61.35
2023-01-21T05:19:23.852Z,60.16
2023-01-21T05:20:23.834Z,61.23
2023-01-21T05:21:23.825Z,67.15
2023-01-21T05:22:23.817Z,56.45
2023-01-21T05:23:23.877Z,59.12
2023-01-21T05:24:23.813Z,51.40
2023-01-21T05:25:23.797Z,58.60
2023-01-21T05:26:23.791Z,56.27
2023-01-21T05:27:23.783Z,64.19
2023-01-21T05:28:23.803Z,61.44
2023-01-21T05:29:23.766Z,58.26
2023-01-21T05:30:23.774Z,56.14
2023-01-21T05:31:23.848Z,57.70
2023-01-21T05:32:23.750Z,50.11
2023-01-21T05:33:23.737Z,56.44
2023-01-21T05:34:23.760Z,58.13
2023-01-21T05:35:23.739Z,54.01
2023-01-21T05:36:23.735Z,56.38
2023-01-21T05:37:23.714Z,62.78
2023-01-21T05:38:23.704Z,67.05
2023-01-21T05:39:23.724Z,56.34
2023-01-21T05:40:23.696Z,52.76
2023-01-21T05:41:23.687Z,59.35
2023-01-21T05:42:23.680Z,55.74
2023-01-21T05:43:23.667Z,65.25
2023-01-21T05:44:23.682Z,53.24
2023-01-21T05:45:23.656Z,59.91
2023-01-21T05:46:23.685Z,54.11
2023-01-21T05:47:23.632Z,57.57
2023-01-21T05:48:23.624Z,65.62
2023-01-21T05:49:23.647Z,55.88
2023-01-21T05:50:23.612Z,57.33
2023-01-21T05:51:23.634Z,53.64
2023-01-21T05:52:23.594Z,56.84
2023-01-21T05:53:23.588Z,58.92
2023-01-21T05:54:23.619Z,57.08
2023-01-21T05:55:23.573Z,61.24
2023-01-21T05:56:23.567Z,58.53
2023-01-21T05:57:23.562Z,55.71
2023-01-21T05:58:23.563Z,56.33
2023-01-21T05:59:23.573Z,62.96
2023-01-21T06:00:23.549Z,54.10
2023-01-21T06:01:23.533Z,59.21
2023-01-21T06:02:23.589Z,56.59
2023-01-21T06:03:23.531Z,55.91
2023-01-21T06:04:24.041Z,55.38
2023-01-21T06:05:24.504Z,58.49
2023-01-21T06:06:23.505Z,53.91
2023-01-21T06:07:23.492Z,53.70
2023-01-21T06:08:23.498Z,48.66
2023-01-21T06:09:23.502Z,53.22
2023-01-21T06:10:23.468Z,54.68
2023-01-21T06:11:23.461Z,51.89
2023-01-21T06:12:24.851Z,57.46
2023-01-21T06:13:24.444Z,62.55
2023-01-21T06:14:23.463Z,62.68
2023-01-21T06:15:23.435Z,62.90
2023-01-21T06:16:23.423Z,64.53
2023-01-21T06:17:23.417Z,57.10
2023-01-21T06:18:23.415Z,55.08
2023-01-21T06:19:23.435Z,57.42
2023-01-21T06:20:23.394Z,53.00
2023-01-21T06:21:23.382Z,54.16
2023-01-21T06:22:23.384Z,63.58
2023-01-21T06:23:23.385Z,55.20
2023-01-21T06:24:23.396Z,56.88
2023-01-21T06:25:23.360Z,55.30
2023-01-21T06:26:23.853Z,60.56
2023-01-21T06:27:23.346Z,57.67
2023-01-21T06:28:23.331Z,60.47
2023-01-21T06:29:23.354Z,52.97
2023-01-21T06:30:23.321Z,56.19
2023-01-21T06:31:23.361Z,51.74
2023-01-21T06:32:23.302Z,58.40
2023-01-21T06:33:23.299Z,63.40
2023-01-21T06:34:23.291Z,56.35
2023-01-21T06:35:23.307Z,58.89
2023-01-21T06:36:23.275Z,49.03
2023-01-21T06:37:23.267Z,54.82
2023-01-21T06:38:23.253Z,56.53
2023-01-21T06:39:24.254Z,59.51
2023-01-21T06:40:23.267Z,58.33
2023-01-21T06:41:24.242Z,55.70
2023-01-21T06:42:23.232Z,59.74
2023-01-21T06:43:23.223Z,58.09
2023-01-21T06:44:23.210Z,57.53
2023-01-21T06:45:23.234Z,62.95
2023-01-21T06:46:23.261Z,61.79
2023-01-21T06:47:23.193Z,59.56
2023-01-21T06:48:23.186Z,58.59
2023-01-21T06:49:23.177Z,59.09
2023-01-21T06:50:23.201Z,53.55
2023-01-21T06:51:23.194Z,57.42
2023-01-21T06:52:23.151Z,56.94
2023-01-21T06:53:23.153Z,57.42
2023-01-21T06:54:23.137Z,62.39
2023-01-21T06:55:23.154Z,61.26
2023-01-21T06:56:23.125Z,67.98
2023-01-21T06:57:23.118Z,58.25
2023-01-21T06:58:23.110Z,59.81
2023-01-21T06:59:23.110Z,57.02
2023-01-21T07:00:23.118Z,58.29
2023-01-21T07:01:23.146Z,60.77
2023-01-21T07:02:23.141Z,64.99
2023-01-21T07:03:23.081Z,59.33
2023-01-21T07:04:23.069Z,55.77
2023-01-21T07:05:23.091Z,57.31
2023-01-21T07:06:23.057Z,67.73
2023-01-21T07:07:23.050Z,64.10
2023-01-21T07:08:23.043Z,62.19
2023-01-21T07:09:23.035Z,60.83
2023-01-21T07:10:23.054Z,58.90
2023-01-21T07:11:23.017Z,61.78
2023-01-21T07:12:23.013Z,68.19
2023-01-21T07:13:23.002Z,58.22
2023-01-21T07:14:23.000Z,58.57
2023-01-21T07:15:23.016Z,56.60
2023-01-21T07:16:23.071Z,61.94
2023-01-21T07:17:22.976Z,59.94
2023-01-21T07:18:22.993Z,56.52
2023-01-21T07:19:22.966Z,58.26
2023-01-21T07:20:22.982Z,63.55
2023-01-21T07:21:22.966Z,61.73
2023-01-21T07:22:22.941Z,60.60
2023-01-21T07:23:22.956Z,62.26
2023-01-21T07:24:22.929Z,58.49
2023-01-21T07:25:22.950Z,62.87
2023-01-21T07:26:22.917Z,65.16
2023-01-21T07:27:22.913Z,60.48
2023-01-21T07:28:22.903Z,62.26
2023-01-21T07:29:22.898Z,65.73
2023-01-21T07:30:22.914Z,62.96
2023-01-21T07:31:22.971Z,60.41
2023-01-21T07:32:22.875Z,61.03
2023-01-21T07:33:22.866Z,66.40
2023-01-21T07:34:22.859Z,64.05
2023-01-21T07:35:22.876Z,61.13
2023-01-21T07:36:22.848Z,64.26
2023-01-21T07:37:22.838Z,62.86
2023-01-21T07:38:22.837Z,61.43
2023-01-21T07:39:22.827Z,62.13
2023-01-21T07:40:22.846Z,62.42
2023-01-21T07:41:22.809Z,60.58
2023-01-21T07:42:22.809Z,62.95
2023-01-21T07:43:22.792Z,65.29
2023-01-21T07:44:22.793Z,63.93
2023-01-21T07:45:22.803Z,60.65
2023-01-21T07:46:22.785Z,60.95
2023-01-21T07:47:22.763Z,57.76
2023-01-21T07:48:22.755Z,60.44
2023-01-21T07:49:22.759Z,63.17
2023-01-21T07:50:22.773Z,58.97
2023-01-21T07:51:22.902Z,60.25
2023-01-21T07:52:22.729Z,66.91
2023-01-21T07:53:22.721Z,53.91
2023-01-21T07:54:22.711Z,59.97
2023-01-21T07:55:22.728Z,59.81
2023-01-21T07:56:22.694Z,58.63
2023-01-21T07:57:22.692Z,65.07
2023-01-21T07:58:22.696Z,61.18
2023-01-21T07:59:22.673Z,61.43
2023-01-21T08:00:22.688Z,60.30
2023-01-21T08:01:25.183Z,59.76
2023-01-21T08:02:23.757Z,63.16
2023-01-21T08:03:22.648Z,60.91
2023-01-21T08:04:22.645Z,63.69
2023-01-21T08:05:22.655Z,61.42
2023-01-21T08:06:22.628Z,58.90
2023-01-21T08:07:22.619Z,60.28
2023-01-21T08:08:22.611Z,63.29
2023-01-21T08:09:22.612Z,62.97
2023-01-21T08:10:22.656Z,62.66
2023-01-21T08:11:22.599Z,64.43
2023-01-21T08:12:22.583Z,60.74
2023-01-21T08:13:22.580Z,56.98
2023-01-21T08:14:22.573Z,55.53
2023-01-21T08:15:22.592Z,61.71
2023-01-21T08:16:22.613Z,59.98
2023-01-21T08:17:22.550Z,60.31
2023-01-21T08:18:22.561Z,59.97
2023-01-21T08:19:22.540Z,61.17
2023-01-21T08:20:22.570Z,58.78
2023-01-21T08:21:22.526Z,58.33
2023-01-21T08:22:22.512Z,59.91
2023-01-21T08:23:22.504Z,61.41
2023-01-21T08:24:22.509Z,56.73
2023-01-21T08:25:22.518Z,57.82
2023-01-21T08:26:25.459Z,57.49
2023-01-21T08:27:22.478Z,60.02
2023-01-21T08:28:22.468Z,64.59
2023-01-21T08:29:22.465Z,61.38
2023-01-21T08:30:22.453Z,60.63
2023-01-21T08:31:22.568Z,61.41
2023-01-21T08:32:22.447Z,62.33
2023-01-21T08:33:22.427Z,63.48
2023-01-21T08:34:22.432Z,60.28
2023-01-21T08:35:22.414Z,63.58
2023-01-21T08:36:22.436Z,64.67
2023-01-21T08:37:22.406Z,63.80
2023-01-21T08:38:22.395Z,62.56
2023-01-21T08:39:22.389Z,62.59
2023-01-21T08:40:22.377Z,64.43
2023-01-21T08:41:22.400Z,65.08
2023-01-21T08:42:22.365Z,61.99
2023-01-21T08:43:22.359Z,64.97
2023-01-21T08:44:22.354Z,65.01
2023-01-21T08:45:22.345Z,68.02
2023-01-21T08:46:22.371Z,66.66
2023-01-21T08:47:22.341Z,63.76
2023-01-21T08:48:22.330Z,65.21
2023-01-21T08:49:22.321Z,63.25
2023-01-21T08:50:22.302Z,66.20
2023-01-21T08:51:22.362Z,65.64
2023-01-21T08:52:22.300Z,66.70
2023-01-21T08:53:22.306Z,65.38
2023-01-21T08:54:22.283Z,64.71
2023-01-21T08:55:22.280Z,63.31
2023-01-21T08:56:22.294Z,65.91
2023-01-21T08:57:22.264Z,66.34
2023-01-21T08:58:22.258Z,63.15
2023-01-21T08:59:22.242Z,64.15
2023-01-21T09:00:22.293Z,62.43
2023-01-21T09:01:22.342Z,62.55
2023-01-21T09:02:22.273Z,63.86
2023-01-21T09:03:22.215Z,66.08
2023-01-21T09:04:22.218Z,63.92
2023-01-21T09:05:22.205Z,59.89
2023-01-21T09:06:22.224Z,68.91
2023-01-21T09:07:22.195Z,67.83
2023-01-21T09:08:22.178Z,67.93
2023-01-21T09:09:23.177Z,61.20
2023-01-21T09:10:22.164Z,63.70
2023-01-21T09:11:22.187Z,65.43
2023-01-21T09:12:22.154Z,65.52
2023-01-21T09:13:22.153Z,65.40
2023-01-21T09:14:22.137Z,63.63
2023-01-21T09:15:22.130Z,68.12
2023-01-21T09:16:22.212Z,64.50
2023-01-21T09:17:22.119Z,66.04
2023-01-21T09:18:22.105Z,62.23
2023-01-21T09:19:22.104Z,64.72
2023-01-21T09:20:22.100Z,60.03
2023-01-21T09:21:22.114Z,66.59
2023-01-21T09:22:22.089Z,64.77
2023-01-21T09:23:22.076Z,63.46
2023-01-21T09:24:23.068Z,62.21
2023-01-21T09:25:23.360Z,66.88
2023-01-21T09:26:23.080Z,66.22
2023-01-21T09:27:22.053Z,65.62
2023-01-21T09:28:22.043Z,65.32
2023-01-21T09:29:22.042Z,68.35
2023-01-21T09:30:22.020Z,60.97
2023-01-21T09:31:22.059Z,64.64
2023-01-21T09:32:23.011Z,64.31
2023-01-21T09:33:21.997Z,66.49
2023-01-21T09:34:21.993Z,63.83
2023-01-21T09:35:21.987Z,61.61
2023-01-21T09:36:22.034Z,65.62
2023-01-21T09:37:21.977Z,66.01
2023-01-21T09:38:21.984Z,66.14
2023-01-21T09:39:21.958Z,69.77
2023-01-21T09:40:21.953Z,66.24
2023-01-21T09:41:21.969Z,63.69
2023-01-21T09:42:21.939Z,64.78
2023-01-21T09:43:21.922Z,64.63
2023-01-21T09:44:21.937Z,63.17
2023-01-21T09:45:21.912Z,63.69
2023-01-21T09:46:21.929Z,66.68
2023-01-21T09:47:21.899Z,66.45
2023-01-21T09:48:21.889Z,65.18
2023-01-21T09:49:21.891Z,64.93
2023-01-21T09:50:21.892Z,65.53
2023-01-21T09:51:21.897Z,64.60
2023-01-21T09:52:21.867Z,66.75
2023-01-21T09:53:21.856Z,69.52
2023-01-21T09:54:21.847Z,64.94
2023-01-21T09:55:21.841Z,65.77
2023-01-21T09:56:21.862Z,66.10
2023-01-21T09:57:21.824Z,66.50
2023-01-21T09:58:21.823Z,66.12
2023-01-21T09:59:21.805Z,68.82
2023-01-21T10:00:21.796Z,66.53
2023-01-21T10:01:22.887Z,65.07
2023-01-21T10:02:21.785Z,63.70
2023-01-21T10:03:21.778Z,67.69
2023-01-21T10:04:21.786Z,64.64
2023-01-21T10:05:21.769Z,66.89
2023-01-21T10:06:21.804Z,67.41
2023-01-21T10:07:21.750Z,69.01
2023-01-21T10:08:21.741Z,67.96
2023-01-21T10:09:21.737Z,67.27
2023-01-21T10:10:21.731Z,65.28
2023-01-21T10:11:21.714Z,66.54
2023-01-21T10:12:21.739Z,67.50
2023-01-21T10:13:21.703Z,67.32
2023-01-21T10:14:21.705Z,62.72
2023-01-21T10:15:21.698Z,66.37
2023-01-21T10:16:21.710Z,65.13
2023-01-21T10:17:21.719Z,65.58
2023-01-21T10:18:21.669Z,67.81
2023-01-21T10:19:21.663Z,66.86
2023-01-21T10:20:21.652Z,66.96
2023-01-21T10:21:21.648Z,65.20
2023-01-21T10:22:21.679Z,67.49
2023-01-21T10:23:21.637Z,66.07
2023-01-21T10:24:21.632Z,65.76
2023-01-21T10:25:21.662Z,64.70
2023-01-21T10:26:21.611Z,67.85
2023-01-21T10:27:21.630Z,65.50
2023-01-21T10:28:21.640Z,69.50
2023-01-21T10:29:22.591Z,65.28
2023-01-21T10:30:21.585Z,65.20
2023-01-21T10:31:21.727Z,64.42
2023-01-21T10:32:21.591Z,64.10
2023-01-21T10:33:21.557Z,64.67
2023-01-21T10:34:21.547Z,65.41
2023-01-21T10:35:21.543Z,67.27
2023-01-21T10:36:21.540Z,64.85
2023-01-21T10:37:21.558Z,65.86
2023-01-21T10:38:21.522Z,65.02
2023-01-21T10:39:21.518Z,66.84
2023-01-21T10:40:21.506Z,66.65
2023-01-21T10:41:21.529Z,67.04
2023-01-21T10:42:21.521Z,64.53
2023-01-21T10:43:21.488Z,65.29
2023-01-21T10:44:21.473Z,65.73
2023-01-21T10:45:21.478Z,68.99
2023-01-21T10:46:21.503Z,65.18
2023-01-21T10:47:21.511Z,62.55
2023-01-21T10:48:21.449Z,65.26
2023-01-21T10:49:21.628Z,63.40
2023-01-21T10:50:21.585Z,63.71
2023-01-21T10:51:21.741Z,63.92
2023-01-21T10:52:21.451Z,64.17
2023-01-21T10:53:21.421Z,64.64
2023-01-21T10:54:22.668Z,66.03
2023-01-21T10:55:22.399Z,63.98
2023-01-21T10:56:21.395Z,62.57
2023-01-21T10:57:21.417Z,64.25
2023-01-21T10:58:21.386Z,62.92
2023-01-21T10:59:21.367Z,60.94
2023-01-21T11:00:21.366Z,61.69
2023-01-21T11:01:21.392Z,64.52
2023-01-21T11:02:21.386Z,63.87
2023-01-21T11:03:21.350Z,63.28
2023-01-21T11:04:21.337Z,65.34
2023-01-21T11:05:21.334Z,67.53
2023-01-21T11:06:21.383Z,63.86
2023-01-21T11:07:21.451Z,65.09
2023-01-21T11:08:21.331Z,66.05
2023-01-21T11:09:21.308Z,66.74
2023-01-21T11:10:21.396Z,65.73
2023-01-21T11:11:21.399Z,65.27
2023-01-21T11:12:21.501Z,63.85
2023-01-21T11:13:21.267Z,66.24
2023-01-21T11:14:21.336Z,63.64
2023-01-21T11:15:22.261Z,63.45
2023-01-21T11:16:21.249Z,65.36
2023-01-21T11:17:21.272Z,65.82
2023-01-21T11:18:21.232Z,68.40
2023-01-21T11:19:21.223Z,63.61
2023-01-21T11:20:21.919Z,63.85
2023-01-21T11:21:22.213Z,65.20
2023-01-21T11:22:21.230Z,66.63
2023-01-21T11:23:21.198Z,63.98
2023-01-21T11:24:21.191Z,67.17
2023-01-21T11:25:21.184Z,65.30
2023-01-21T11:26:21.173Z,65.21
2023-01-21T11:27:21.204Z,63.08
2023-01-21T11:28:21.186Z,59.66
2023-01-21T11:29:21.156Z,64.89
2023-01-21T11:30:44.207Z,62.68
2023-01-21T11:31:23.183Z,61.44
2023-01-21T11:32:21.288Z,62.51
2023-01-21T11:33:21.155Z,67.11
2023-01-21T11:34:21.129Z,63.16
2023-01-21T11:35:21.113Z,63.62
2023-01-21T11:36:21.112Z,64.14
2023-01-21T11:37:21.127Z,68.73
2023-01-21T11:38:21.091Z,65.13
2023-01-21T11:39:21.081Z,65.55
2023-01-21T11:40:21.388Z,67.26
2023-01-21T11:41:22.084Z,63.65
2023-01-21T11:42:21.104Z,62.28
2023-01-21T11:43:21.056Z,56.57
2023-01-21T11:44:21.052Z,64.77
2023-01-21T11:45:21.086Z,65.53
2023-01-21T11:46:21.081Z,64.95
2023-01-21T11:47:22.085Z,64.81
2023-01-21T11:48:21.077Z,65.39
2023-01-21T11:49:21.106Z,62.47
2023-01-21T11:50:21.189Z,64.41
2023-01-21T11:51:21.041Z,63.57
2023-01-21T11:52:21.018Z,63.71
2023-01-21T11:53:20.986Z,63.12
2023-01-21T11:54:20.979Z,64.25
2023-01-21T11:55:21.043Z,64.40
2023-01-21T11:56:21.043Z,60.90
2023-01-21T11:57:20.973Z,60.71
2023-01-21T11:58:20.964Z,66.08
2023-01-21T11:59:20.978Z,61.57
2023-01-21T12:00:20.966Z,65.11
2023-01-21T12:01:20.935Z,64.57
2023-01-21T12:02:20.981Z,64.63
2023-01-21T12:03:20.936Z,60.96
2023-01-21T12:04:20.895Z,63.36
2023-01-21T12:05:20.893Z,68.50
2023-01-21T12:06:20.885Z,65.18
2023-01-21T12:07:20.877Z,65.55
2023-01-21T12:08:20.917Z,62.84
2023-01-21T12:09:20.873Z,66.56
2023-01-21T12:10:20.856Z,61.79
2023-01-21T12:11:20.843Z,64.28
2023-01-21T12:12:20.839Z,64.89
2023-01-21T12:13:20.861Z,60.94
2023-01-21T12:14:20.819Z,66.66
2023-01-21T12:15:20.814Z,69.81
2023-01-21T12:16:20.856Z,67.01
2023-01-21T12:17:20.794Z,65.30
2023-01-21T12:18:20.819Z,63.51
2023-01-21T12:19:20.786Z,64.85
2023-01-21T12:20:20.785Z,64.71
2023-01-21T12:21:20.767Z,63.14
2023-01-21T12:22:20.765Z,64.34
2023-01-21T12:23:20.777Z,63.71
2023-01-21T12:24:20.742Z,64.86
2023-01-21T12:25:20.740Z,58.70
2023-01-21T12:26:20.734Z,64.24
2023-01-21T12:27:20.722Z,64.77
2023-01-21T12:28:20.743Z,61.90
2023-01-21T12:29:20.832Z,62.68
2023-01-21T12:30:20.704Z,66.49
2023-01-21T12:31:20.798Z,62.96
2023-01-21T12:32:23.582Z,65.99
2023-01-21T12:33:20.702Z,63.41
2023-01-21T12:34:20.672Z,61.40
2023-01-21T12:35:20.661Z,64.81
2023-01-21T12:36:20.660Z,66.55
2023-01-21T12:37:20.655Z,65.00
2023-01-21T12:38:20.663Z,64.20
2023-01-21T12:39:20.634Z,64.17
2023-01-21T12:40:20.631Z,61.47
2023-01-21T12:41:20.623Z,61.79
2023-01-21T12:42:20.643Z,65.28
2023-01-21T12:43:20.631Z,60.34
2023-01-21T12:44:20.599Z,64.12
2023-01-21T12:45:20.597Z,66.00
2023-01-21T12:46:20.692Z,64.99
2023-01-21T12:47:20.583Z,60.50
2023-01-21T12:48:20.600Z,63.54
2023-01-21T12:49:20.565Z,59.84
2023-01-21T12:50:20.558Z,64.23
2023-01-21T12:51:20.605Z,62.45
2023-01-21T12:52:20.544Z,64.85